Mae Sariang, Thailand
Current Conditions -  °F | °C
As of 7:00 PM on Saturday 22 Nov 2014 (Local Time) from VTCH Reporting Station
Clear Clear  
Wind Chill: 73°   Ceiling: Unl
Heat Index: 73°   Visibility: 6mi
Dew Point: 64°   Wind: 5mph
Humidity: 73%   Direction: 120°ESE
Pressure: 29.85"   Gusts: NA
Location:  18.15°N, 97.93°E
Report Text: VTCH 221200Z 12004KT 080V180 CAVOK 23/18 Q1011 A2986
Loading
Personal Weather Stations






























Interactive Weather Map New forecast layout! Learn more

10-Day Weather Forecast

Advertisements
Track Severe Weather on mobile